Albany, Indiana
Current Conditions -  °F | °C
As of 6:53 PM on Wednesday 22 Oct 2014 (Local Time) from KMIE Reporting Station
Clear Clear  
Wind Chill: 51°   Ceiling: Unl
Heat Index: 51°   Visibility: 10mi
Dew Point: 41°   Wind: 8mph
Humidity: 68%   Direction: 90°E
Pressure: 30.27"   Gusts: NA
Location:  40.3°N, 85.24°W
Report Text: KMIE 222253Z 09007KT 10SM CLR 11/05 A3027 RMK AO2 SLP249 T01060050
Loading
Personal Weather Stations






























Interactive Weather Map New forecast layout! Learn more

10-Day Weather Forecast

Advertisements
Track Severe Weather on mobile